This is the latest recevied weather packets stored in our database for station/object LY3FF-10. If no packets are shown the sender has not sent any weather packets the latest 10 day(s).
| Time | Temp. | Humidity | Pressure | Rain* | Wind** | Luminosity | Snow |
|---|---|---|---|---|---|---|---|
| 1787595464 | 15.56° C | 73% | 996.6 hPa | - | - | - | - |
| 1787594600 | 15.56° C | 73% | 996.5 hPa | - | - | - | - |
| 1787593700 | 16.11° C | 71% | 996.4 hPa | - | - | - | - |
| 1787592850 | 16.11° C | 70% | 996.4 hPa | - | - | - | - |
| 1787592034 | 16.67° C | 68% | 996.3 hPa | - | - | - | - |
| 1787591164 | 16.67° C | 67% | 996.3 hPa | - | - | - | - |
| 1787590390 | 17.22° C | 65% | 996.3 hPa | - | - | - | - |
| 1787589524 | 17.78° C | 65% | 996.2 hPa | - | - | - | - |
| 1787588724 | 18.33° C | 63% | 996.3 hPa | - | - | - | - |
| 1787587950 | 19.44° C | 62% | 996.2 hPa | - | - | - | - |
| 1787587164 | 18.89° C | 63% | 996.3 hPa | - | - | - | - |
| 1787586320 | 19.44° C | 61% | 996.3 hPa | - | - | - | - |
| 1787585545 | 19.44° C | 61% | 996.3 hPa | - | - | - | - |
| 1787584660 | 19.44° C | 61% | 996.4 hPa | - | - | - | - |
| 1787583940 | 20° C | 61% | 996.2 hPa | - | - | - | - |
| 1787583124 | 20° C | 61% | 996.2 hPa | - | - | - | - |
| 1787582375 | 20° C | 62% | 996.1 hPa | - | - | - | - |
| 1787581484 | 20° C | 62% | 996 hPa | - | - | - | - |
| 1787580668 | 19.44° C | 66% | 996 hPa | - | - | - | - |
| 1787579810 | 18.89° C | 68% | 996 hPa | - | - | - | - |
| 1787578985 | 18.33° C | 70% | 996 hPa | - | - | - | - |
| 1787578144 | 17.78° C | 71% | 996.1 hPa | - | - | - | - |
| 1787577375 | 16.11° C | 73% | 996.3 hPa | - | - | - | - |
| 1787576640 | 16.67° C | 69% | 996.3 hPa | - | - | - | - |
| 1787575890 | 17.22° C | 64% | 996.2 hPa | - | - | - | - |
* Rain since midnight (hover to see other rain measurements)
** Current wind speed in m/s (hover to see current wind gust speed)